createdAt,value
2022-12-01T00:01:02.260Z,15.35
2022-12-01T00:03:33.397Z,17.57
2022-12-01T00:06:02.176Z,17.83
2022-12-01T00:08:29.791Z,16.17
2022-12-01T00:11:07.818Z,15.55
2022-12-01T00:13:35.232Z,14.63
2022-12-01T00:16:16.573Z,14.40
2022-12-01T00:18:43.572Z,12.23
2022-12-01T00:21:18.034Z,16.13
2022-12-01T00:23:49.883Z,13.85
2022-12-01T00:26:17.914Z,13.93
2022-12-01T00:28:44.578Z,16.30
2022-12-01T00:31:12.646Z,12.30
2022-12-01T00:33:39.866Z,12.82
2022-12-01T00:36:07.367Z,14.30
2022-12-01T00:38:34.874Z,14.00
2022-12-01T00:41:02.211Z,13.47
2022-12-01T00:43:28.753Z,14.63
2022-12-01T00:45:56.588Z,14.50
2022-12-01T00:48:23.797Z,16.65
2022-12-01T00:50:52.317Z,15.82
2022-12-01T00:53:19.096Z,15.53
2022-12-01T00:55:45.899Z,14.98
2022-12-01T00:58:12.544Z,15.50
2022-12-01T01:00:39.014Z,13.35
2022-12-01T01:03:06.992Z,15.25
2022-12-01T01:05:37.845Z,15.87
2022-12-01T01:08:12.129Z,14.32
2022-12-01T01:10:45.673Z,15.55
2022-12-01T01:13:14.315Z,13.90
2022-12-01T01:15:41.466Z,14.50
2022-12-01T01:18:09.787Z,13.93
2022-12-01T01:20:36.317Z,15.10
2022-12-01T01:23:03.029Z,13.75
2022-12-01T01:25:31.278Z,15.23
2022-12-01T01:27:57.912Z,13.95
2022-12-01T01:30:24.482Z,14.63
2022-12-01T01:32:51.110Z,14.98
2022-12-01T01:35:17.786Z,13.75
2022-12-01T01:37:44.384Z,16.27
2022-12-01T01:40:11.446Z,14.88
2022-12-01T01:42:37.962Z,14.73
2022-12-01T01:45:05.471Z,12.70
2022-12-01T01:47:37.804Z,14.85
2022-12-01T01:50:10.122Z,14.07
2022-12-01T01:52:41.131Z,16.05
2022-12-01T01:55:08.122Z,14.67
2022-12-01T01:57:35.355Z,12.63
2022-12-01T02:00:09.587Z,14.88
2022-12-01T02:02:40.584Z,13.85
2022-12-01T02:05:11.120Z,15.95
2022-12-01T02:07:42.007Z,15.97
2022-12-01T02:10:12.476Z,13.88
2022-12-01T02:12:59.747Z,16.20
2022-12-01T02:15:55.624Z,17.45
2022-12-01T02:19:03.914Z,14.80
2022-12-01T02:22:02.574Z,15.10
2022-12-01T02:24:50.799Z,14.88
2022-12-01T02:27:35.208Z,18.67
2022-12-01T02:30:16.865Z,16.25
2022-12-01T02:32:49.833Z,15.20
2022-12-01T02:35:46.183Z,16.10
2022-12-01T02:38:48.476Z,15.95
2022-12-01T02:41:28.100Z,14.13
2022-12-01T02:44:13.021Z,16.25
2022-12-01T02:46:49.307Z,14.80
2022-12-01T02:49:21.644Z,13.97
2022-12-01T02:51:49.097Z,16.40
2022-12-01T02:54:16.047Z,14.93
2022-12-01T02:56:45.753Z,17.20
2022-12-01T02:59:14.151Z,16.00
2022-12-01T03:02:01.497Z,16.20
2022-12-01T03:04:54.135Z,16.90
2022-12-01T03:07:59.278Z,17.90
2022-12-01T03:10:41.536Z,17.23
2022-12-01T03:13:35.246Z,15.48
2022-12-01T03:16:16.362Z,16.00
2022-12-01T03:18:58.613Z,15.75
2022-12-01T03:21:36.135Z,15.05
2022-12-01T03:24:08.972Z,14.68
2022-12-01T03:26:38.068Z,16.17
2022-12-01T03:29:16.154Z,15.93
2022-12-01T03:31:48.561Z,16.38
2022-12-01T03:34:20.318Z,16.08
2022-12-01T03:36:53.569Z,14.48
2022-12-01T03:39:26.755Z,15.40
2022-12-01T03:42:08.421Z,15.80
2022-12-01T03:44:43.171Z,16.10
2022-12-01T03:47:15.721Z,15.27
2022-12-01T03:49:44.121Z,15.57
2022-12-01T03:52:22.027Z,15.68
2022-12-01T03:55:13.763Z,15.70
2022-12-01T03:57:49.935Z,16.15
2022-12-01T04:00:17.217Z,14.68
2022-12-01T04:02:44.969Z,15.25
2022-12-01T04:05:12.634Z,15.40
2022-12-01T04:07:39.766Z,16.33
2022-12-01T04:10:07.789Z,11.15
2022-12-01T04:12:34.689Z,13.23
2022-12-01T04:15:05.966Z,15.20
2022-12-01T04:17:32.472Z,15.68
2022-12-01T04:19:59.153Z,16.20
2022-12-01T04:22:26.413Z,17.60
2022-12-01T04:24:53.313Z,15.35
2022-12-01T04:27:20.749Z,14.35
2022-12-01T04:29:47.886Z,15.30
2022-12-01T04:32:14.897Z,14.40
2022-12-01T04:34:41.513Z,16.35
2022-12-01T04:37:09.991Z,15.52
2022-12-01T04:39:36.844Z,15.93
2022-12-01T04:42:04.239Z,17.48
2022-12-01T04:44:34.767Z,15.83
2022-12-01T04:47:02.963Z,16.65
2022-12-01T04:49:29.802Z,12.07
2022-12-01T04:51:56.436Z,17.13
2022-12-01T04:54:22.953Z,17.67
2022-12-01T04:56:49.550Z,15.67
2022-12-01T04:59:16.514Z,16.35
2022-12-01T05:01:43.111Z,17.55
2022-12-01T05:04:13.302Z,18.45
2022-12-01T05:06:40.369Z,16.27
2022-12-01T05:09:07.252Z,16.50
2022-12-01T05:11:33.873Z,16.30
2022-12-01T05:14:01.224Z,16.63
2022-12-01T05:16:32.424Z,16.52
2022-12-01T05:19:21.062Z,17.88
2022-12-01T05:21:49.062Z,16.83
2022-12-01T05:24:16.375Z,15.60
2022-12-01T05:26:44.208Z,17.05
2022-12-01T05:29:13.112Z,16.55
2022-12-01T05:31:40.127Z,13.40
2022-12-01T05:34:07.719Z,14.40
2022-12-01T05:36:34.391Z,12.68
2022-12-01T05:39:01.001Z,15.02
2022-12-01T05:41:27.702Z,17.13
2022-12-01T05:43:54.257Z,15.98
2022-12-01T05:46:20.766Z,16.37
2022-12-01T05:48:47.543Z,17.77
2022-12-01T05:51:16.743Z,17.33
2022-12-01T05:53:43.925Z,17.65
2022-12-01T05:56:10.898Z,17.95
2022-12-01T05:58:37.813Z,17.57
2022-12-01T06:01:06.571Z,18.42
2022-12-01T06:03:33.087Z,17.30
2022-12-01T06:05:59.618Z,17.55
2022-12-01T06:08:26.197Z,17.20
2022-12-01T06:10:52.750Z,18.57
2022-12-01T06:13:19.351Z,16.77
2022-12-01T06:15:45.988Z,17.40
2022-12-01T06:18:12.729Z,16.98
2022-12-01T06:20:39.297Z,17.05
2022-12-01T06:23:05.873Z,16.30
2022-12-01T06:25:32.446Z,16.08
2022-12-01T06:27:59.287Z,15.43
2022-12-01T06:30:26.486Z,17.08
2022-12-01T06:32:53.093Z,16.77
2022-12-01T06:35:19.741Z,17.03
2022-12-01T06:37:46.302Z,16.95
2022-12-01T06:40:13.111Z,16.95
2022-12-01T06:42:39.579Z,20.17
2022-12-01T06:45:06.567Z,18.02
2022-12-01T06:47:33.208Z,17.53
2022-12-01T06:49:59.902Z,18.17
2022-12-01T06:52:26.407Z,17.88
2022-12-01T06:54:53.101Z,16.88
2022-12-01T06:57:20.054Z,17.48
2022-12-01T06:59:47.373Z,18.87
2022-12-01T07:02:14.441Z,17.85
2022-12-01T07:04:41.051Z,15.65
2022-12-01T07:07:07.840Z,16.35
2022-12-01T07:09:34.744Z,17.40
2022-12-01T07:12:01.528Z,17.63
2022-12-01T07:14:28.355Z,15.82
2022-12-01T07:16:55.147Z,17.40
2022-12-01T07:19:21.847Z,20.30
2022-12-01T07:21:48.431Z,18.63
2022-12-01T07:24:15.247Z,18.87
2022-12-01T07:26:42.312Z,18.30
2022-12-01T07:29:11.323Z,22.17
2022-12-01T07:31:38.784Z,18.98
2022-12-01T07:34:06.083Z,18.70
2022-12-01T07:36:32.686Z,18.53
2022-12-01T07:38:59.268Z,16.65
2022-12-01T07:41:26.168Z,20.27
2022-12-01T07:43:52.795Z,18.35
2022-12-01T07:46:25.436Z,18.70
2022-12-01T07:48:53.390Z,17.90
2022-12-01T07:51:21.360Z,18.88
2022-12-01T07:53:49.355Z,17.95
2022-12-01T07:56:17.149Z,18.10
2022-12-01T07:58:43.813Z,18.02
2022-12-01T08:01:12.998Z,17.83
2022-12-01T08:03:40.679Z,18.98
2022-12-01T08:06:08.592Z,19.95
2022-12-01T08:08:37.184Z,17.90
2022-12-01T08:11:06.619Z,19.02
2022-12-01T08:13:33.889Z,20.27
2022-12-01T08:16:04.234Z,17.38
2022-12-01T08:18:31.861Z,21.20
2022-12-01T08:20:59.183Z,20.58
2022-12-01T08:23:25.903Z,19.98
2022-12-01T08:25:55.418Z,16.50
2022-12-01T08:28:21.948Z,17.30
2022-12-01T08:30:48.587Z,20.23
2022-12-01T08:33:15.129Z,18.40
2022-12-01T08:35:41.624Z,17.38
2022-12-01T08:38:09.533Z,17.63
2022-12-01T08:40:36.421Z,20.20
2022-12-01T08:43:03.401Z,18.80
2022-12-01T08:45:30.101Z,20.02
2022-12-01T08:48:00.081Z,19.23
2022-12-01T08:50:27.899Z,22.07
2022-12-01T08:52:54.622Z,17.33
2022-12-01T08:55:24.331Z,20.60
2022-12-01T08:57:50.851Z,19.27
2022-12-01T09:00:17.507Z,19.35
2022-12-01T09:02:44.175Z,16.60
2022-12-01T09:05:10.728Z,18.67
2022-12-01T09:07:37.269Z,20.40
2022-12-01T09:10:05.170Z,19.45
2022-12-01T09:12:31.886Z,20.10
2022-12-01T09:14:58.483Z,20.23
2022-12-01T09:17:35.622Z,20.85
2022-12-01T09:20:06.768Z,18.73
2022-12-01T09:22:34.771Z,18.27
2022-12-01T09:25:01.282Z,19.13
2022-12-01T09:27:27.928Z,19.47
2022-12-01T09:29:54.467Z,20.73
2022-12-01T09:32:21.148Z,18.02
2022-12-01T09:34:47.671Z,22.05
2022-12-01T09:37:14.329Z,19.83
2022-12-01T09:39:40.890Z,18.17
2022-12-01T09:42:13.837Z,21.58
2022-12-01T09:44:48.793Z,17.45
2022-12-01T09:47:22.946Z,20.85
2022-12-01T09:50:13.583Z,18.38
2022-12-01T09:52:45.409Z,22.57
2022-12-01T09:55:14.504Z,19.70
2022-12-01T09:57:42.488Z,22.20
2022-12-01T10:00:16.507Z,23.00
2022-12-01T10:02:56.047Z,20.40
2022-12-01T10:05:26.934Z,20.50
2022-12-01T10:08:01.306Z,20.83
2022-12-01T10:10:33.401Z,21.90
2022-12-01T10:13:00.680Z,19.98
2022-12-01T10:16:00.725Z,20.83
2022-12-01T10:18:55.109Z,20.50
2022-12-01T10:22:09.837Z,21.15
2022-12-01T10:25:17.832Z,19.42
2022-12-01T10:28:10.576Z,23.00
2022-12-01T10:30:48.969Z,19.25
2022-12-01T10:33:25.914Z,23.80
2022-12-01T10:35:53.622Z,21.50
2022-12-01T10:38:29.141Z,21.65
2022-12-01T10:40:59.938Z,17.40
2022-12-01T10:43:35.028Z,23.80
2022-12-01T10:46:16.776Z,23.90
2022-12-01T10:48:55.062Z,22.48
2022-12-01T10:51:22.885Z,24.38
2022-12-01T10:53:49.754Z,21.58
2022-12-01T10:56:19.691Z,22.77
2022-12-01T10:58:51.421Z,21.57
2022-12-01T11:01:24.996Z,22.70
2022-12-01T11:03:57.143Z,22.88
2022-12-01T11:06:29.365Z,23.83
2022-12-01T11:09:03.452Z,20.90
2022-12-01T11:11:40.385Z,23.63
2022-12-01T11:14:22.727Z,20.75
2022-12-01T11:16:52.246Z,21.65
2022-12-01T11:19:42.344Z,20.90
2022-12-01T11:22:24.632Z,17.30
2022-12-01T11:25:21.728Z,20.73
2022-12-01T11:27:57.664Z,24.92
2022-12-01T11:30:27.110Z,21.73
2022-12-01T11:32:57.048Z,18.27
2022-12-01T11:35:28.712Z,16.95
2022-12-01T11:38:28.248Z,20.07
2022-12-01T11:40:50.240Z,15.77
2022-12-01T11:43:33.361Z,17.63
2022-12-01T11:46:04.695Z,20.58
2022-12-01T11:48:36.607Z,18.25
2022-12-01T11:51:27.721Z,19.20
2022-12-01T11:54:11.278Z,16.58
2022-12-01T11:56:37.959Z,19.52
2022-12-01T11:59:10.141Z,20.02
2022-12-01T12:02:00.358Z,23.23
2022-12-01T12:04:47.870Z,19.53
2022-12-01T12:07:47.890Z,18.80
2022-12-01T12:10:41.078Z,15.95
2022-12-01T12:13:44.241Z,18.55
2022-12-01T12:16:43.296Z,19.25
2022-12-01T12:20:09.415Z,18.97
2022-12-01T12:22:57.208Z,18.77
2022-12-01T12:25:34.186Z,18.73
2022-12-01T12:28:59.808Z,19.40
2022-12-01T12:32:02.863Z,16.38
2022-12-01T12:35:16.472Z,18.00
2022-12-01T12:38:00.301Z,17.67
2022-12-01T12:40:52.120Z,17.83
2022-12-01T12:43:34.661Z,19.52
2022-12-01T12:46:07.435Z,15.00
2022-12-01T12:49:19.778Z,17.10
2022-12-01T12:51:53.308Z,16.65
2022-12-01T12:54:32.050Z,18.00
2022-12-01T12:57:09.001Z,17.13
2022-12-01T12:59:48.614Z,17.60
2022-12-01T13:02:33.199Z,13.87
2022-12-01T13:05:34.173Z,15.35
2022-12-01T13:08:09.173Z,15.25
2022-12-01T13:10:53.690Z,19.27
2022-12-01T13:13:34.059Z,17.85
2022-12-01T13:16:03.592Z,16.80
2022-12-01T13:18:39.680Z,14.15
2022-12-01T13:21:07.463Z,17.13
2022-12-01T13:23:37.770Z,16.80
2022-12-01T13:26:08.241Z,17.70
2022-12-01T13:28:41.446Z,17.93
2022-12-01T13:31:10.808Z,13.80
2022-12-01T13:33:41.400Z,15.70
2022-12-01T13:39:15.327Z,17.17
2022-12-01T13:41:44.966Z,16.80
2022-12-01T13:44:27.303Z,14.30
2022-12-01T13:47:03.900Z,16.17
2022-12-01T13:49:51.783Z,13.40
2022-12-01T13:52:48.856Z,16.58
2022-12-01T13:55:52.523Z,14.17
2022-12-01T13:58:25.841Z,17.10
2022-12-01T14:00:52.811Z,14.77
2022-12-01T14:03:51.681Z,14.57
2022-12-01T14:06:52.796Z,16.63
2022-12-01T14:09:28.727Z,19.40
2022-12-01T14:11:59.025Z,15.05
2022-12-01T14:14:28.918Z,15.65
2022-12-01T14:16:59.150Z,16.45
2022-12-01T14:19:55.810Z,16.10
2022-12-01T14:22:47.760Z,15.17
2022-12-01T14:25:20.355Z,14.23
2022-12-01T14:27:50.939Z,13.55
2022-12-01T14:30:59.725Z,14.27
2022-12-01T14:34:14.437Z,16.83
2022-12-01T14:36:49.220Z,14.60
2022-12-01T14:39:22.799Z,16.75
2022-12-01T14:41:58.474Z,15.13
2022-12-01T14:44:31.429Z,16.05
2022-12-01T14:47:37.585Z,15.23
2022-12-01T14:50:11.907Z,14.83
2022-12-01T14:52:44.561Z,14.32
2022-12-01T14:55:25.122Z,16.58
2022-12-01T14:58:00.285Z,13.05
2022-12-01T15:00:29.783Z,14.88
2022-12-01T15:03:00.161Z,13.13
2022-12-01T15:05:29.574Z,15.43
2022-12-01T15:08:18.766Z,13.98
2022-12-01T15:10:56.922Z,13.98
2022-12-01T15:13:33.232Z,17.20
2022-12-01T15:16:05.076Z,15.13
2022-12-01T15:18:34.213Z,14.93
2022-12-01T15:21:09.855Z,14.20
2022-12-01T15:23:37.126Z,14.27
2022-12-01T15:26:04.152Z,13.60
2022-12-01T15:28:33.568Z,12.87
2022-12-01T15:31:01.779Z,12.13
2022-12-01T15:33:37.221Z,12.68
2022-12-01T15:36:05.098Z,13.23
2022-12-01T15:38:36.391Z,12.18
2022-12-01T15:44:00.476Z,14.45
2022-12-01T15:46:32.235Z,14.27
2022-12-01T15:49:15.927Z,15.90
2022-12-01T15:51:42.644Z,14.80
2022-12-01T15:54:19.527Z,15.43
2022-12-01T15:56:50.279Z,16.38
2022-12-01T15:59:27.530Z,17.38
2022-12-01T16:01:54.858Z,16.42
2022-12-01T16:04:27.248Z,18.15
2022-12-01T16:07:08.002Z,16.60
2022-12-01T16:09:37.169Z,16.27
2022-12-01T16:12:20.157Z,17.67
2022-12-01T16:15:12.766Z,17.48
2022-12-01T16:17:45.346Z,18.10
2022-12-01T16:20:39.361Z,18.20
2022-12-01T16:23:14.437Z,20.40
2022-12-01T16:25:43.634Z,20.40
2022-12-01T16:28:22.048Z,20.50
2022-12-01T16:30:49.306Z,22.17
2022-12-01T16:33:21.933Z,19.23
2022-12-01T16:35:49.382Z,18.13
2022-12-01T16:38:24.871Z,20.10
2022-12-01T16:40:54.905Z,18.65
2022-12-01T16:43:29.831Z,18.38
2022-12-01T16:49:54.485Z,17.25
2022-12-01T16:55:25.886Z,17.77
2022-12-01T16:57:52.540Z,19.85
2022-12-01T17:00:19.435Z,17.60
2022-12-01T17:02:46.231Z,18.83
2022-12-01T17:05:12.986Z,19.38
2022-12-01T17:07:39.786Z,18.45
2022-12-01T17:10:07.173Z,18.92
2022-12-01T17:12:34.768Z,16.87
2022-12-01T17:15:01.288Z,18.58
2022-12-01T17:17:29.721Z,18.08
2022-12-01T17:19:56.239Z,17.80
2022-12-01T17:22:22.774Z,18.35
2022-12-01T17:24:49.629Z,18.63
2022-12-01T17:27:16.844Z,18.02
2022-12-01T17:29:46.227Z,17.92
2022-12-01T17:32:14.311Z,16.80
2022-12-01T17:34:41.231Z,16.05
2022-12-01T17:37:08.105Z,22.00
2022-12-01T17:39:34.690Z,18.83
2022-12-01T17:42:01.274Z,18.30
2022-12-01T17:44:27.880Z,19.17
2022-12-01T17:46:54.624Z,24.50
2022-12-01T17:49:21.325Z,24.93
2022-12-01T17:51:48.216Z,20.95
2022-12-01T17:54:14.782Z,23.27
2022-12-01T17:56:41.426Z,19.45
2022-12-01T17:59:08.128Z,18.23
2022-12-01T18:01:34.955Z,17.90
2022-12-01T18:04:01.552Z,19.58
2022-12-01T18:06:28.525Z,18.83
2022-12-01T18:08:56.643Z,19.88
2022-12-01T18:11:24.139Z,17.90
2022-12-01T18:13:51.816Z,18.77
2022-12-01T18:16:22.339Z,19.63
2022-12-01T18:18:49.707Z,20.08
2022-12-01T18:21:19.679Z,20.85
2022-12-01T18:23:51.153Z,16.13
2022-12-01T18:26:19.703Z,20.57
2022-12-01T18:28:46.375Z,18.85
2022-12-01T18:31:16.073Z,21.13
2022-12-01T18:33:44.846Z,21.45
2022-12-01T18:36:14.211Z,17.95
2022-12-01T18:38:41.431Z,16.17
2022-12-01T18:41:08.042Z,18.80
2022-12-01T18:43:34.584Z,20.10
2022-12-01T18:46:03.947Z,17.55
2022-12-01T18:48:30.730Z,18.45
2022-12-01T18:51:02.586Z,17.63
2022-12-01T18:53:30.944Z,17.92
2022-12-01T18:56:00.788Z,18.20
2022-12-01T18:58:27.299Z,18.23
2022-12-01T19:00:53.977Z,16.05
2022-12-01T19:03:20.918Z,15.00
2022-12-01T19:05:47.441Z,15.38
2022-12-01T19:08:14.720Z,19.98
2022-12-01T19:10:41.321Z,19.25
2022-12-01T19:13:08.048Z,20.08
2022-12-01T19:15:36.856Z,18.37
2022-12-01T19:18:03.693Z,16.38
2022-12-01T19:20:30.171Z,17.02
2022-12-01T19:22:56.774Z,15.35
2022-12-01T19:25:23.418Z,12.70
2022-12-01T19:27:51.149Z,17.00
2022-12-01T19:30:17.917Z,16.35
2022-12-01T19:32:44.632Z,15.45
2022-12-01T19:35:11.349Z,18.63
2022-12-01T19:37:38.015Z,14.15
2022-12-01T19:40:04.877Z,16.63
2022-12-01T19:42:31.490Z,17.33
2022-12-01T19:44:58.666Z,16.40
2022-12-01T19:47:25.222Z,17.58
2022-12-01T19:49:51.725Z,17.77
2022-12-01T19:52:18.257Z,15.83
2022-12-01T19:54:44.781Z,15.82
2022-12-01T19:57:11.262Z,18.85
2022-12-01T19:59:37.710Z,18.48
2022-12-01T20:02:04.408Z,21.30
2022-12-01T20:04:31.133Z,18.47
2022-12-01T20:06:57.584Z,16.20
2022-12-01T20:09:24.095Z,16.90
2022-12-01T20:11:50.934Z,18.48
2022-12-01T20:14:17.569Z,18.00
2022-12-01T20:16:44.266Z,18.93
2022-12-01T20:19:11.084Z,18.02
2022-12-01T20:21:42.471Z,19.50
2022-12-01T20:24:13.287Z,19.35
2022-12-01T20:26:47.886Z,16.45
2022-12-01T20:29:17.593Z,19.23
2022-12-01T20:31:44.898Z,15.93
2022-12-01T20:34:15.771Z,19.88
2022-12-01T20:36:42.676Z,16.67
2022-12-01T20:39:11.357Z,18.60
2022-12-01T20:41:39.161Z,18.40
2022-12-01T20:44:07.952Z,16.10
2022-12-01T20:46:36.030Z,18.38
2022-12-01T20:49:02.694Z,19.10
2022-12-01T20:51:33.125Z,18.08
2022-12-01T20:54:26.720Z,17.47
2022-12-01T20:56:48.131Z,21.27
2022-12-01T20:59:14.691Z,20.20
2022-12-01T21:01:41.437Z,17.92
2022-12-01T21:04:08.684Z,17.65
2022-12-01T21:06:35.319Z,19.50
2022-12-01T21:09:03.149Z,16.98
2022-12-01T21:11:53.876Z,22.05
2022-12-01T21:14:35.741Z,20.02
2022-12-01T21:17:14.815Z,21.40
2022-12-01T21:19:52.574Z,19.57
2022-12-01T21:22:20.542Z,17.27
2022-12-01T21:25:19.626Z,20.95
2022-12-01T21:27:47.067Z,16.85
2022-12-01T21:30:20.900Z,22.58
2022-12-01T21:32:49.337Z,20.30
2022-12-01T21:35:20.099Z,19.23
2022-12-01T21:37:48.795Z,19.48
2022-12-01T21:40:20.848Z,19.75
2022-12-01T21:42:48.358Z,19.63
2022-12-01T21:45:29.337Z,19.73
2022-12-01T21:48:06.304Z,19.98
2022-12-01T21:50:32.876Z,20.27
2022-12-01T21:52:59.750Z,18.75
2022-12-01T21:55:46.879Z,20.13
2022-12-01T21:58:23.684Z,18.47
2022-12-01T22:00:51.350Z,17.33
2022-12-01T22:03:50.388Z,19.17
2022-12-01T22:06:30.597Z,18.23
2022-12-01T22:09:02.523Z,17.67
2022-12-01T22:11:31.215Z,18.93
2022-12-01T22:14:18.746Z,17.65
2022-12-01T22:16:49.971Z,19.77
2022-12-01T22:19:42.441Z,19.85
2022-12-01T22:22:29.312Z,17.08
2022-12-01T22:25:21.347Z,17.73
2022-12-01T22:27:48.013Z,18.92
2022-12-01T22:30:20.552Z,18.10
2022-12-01T22:32:56.676Z,17.23
2022-12-01T22:35:48.322Z,16.30
2022-12-01T22:38:41.119Z,16.90
2022-12-01T22:41:20.048Z,19.05
2022-12-01T22:44:00.630Z,20.77
2022-12-01T22:46:34.843Z,18.90
2022-12-01T22:49:28.605Z,19.40
2022-12-01T22:52:27.099Z,20.50
2022-12-01T22:54:54.179Z,17.85
2022-12-01T22:57:26.586Z,20.35
2022-12-01T22:59:54.159Z,19.33
2022-12-01T23:02:22.493Z,21.50
2022-12-01T23:04:54.699Z,22.47
2022-12-01T23:07:47.591Z,20.63
2022-12-01T23:10:34.888Z,18.45
2022-12-01T23:13:13.531Z,20.55
2022-12-01T23:15:44.274Z,21.05
2022-12-01T23:18:24.135Z,21.37
2022-12-01T23:20:53.162Z,21.05
2022-12-01T23:23:24.962Z,23.40
2022-12-01T23:25:51.572Z,22.35
2022-12-01T23:28:19.327Z,22.58
2022-12-01T23:30:49.417Z,19.63
2022-12-01T23:33:28.175Z,22.92
2022-12-01T23:36:17.729Z,23.60
2022-12-01T23:38:49.976Z,22.77
2022-12-01T23:41:32.891Z,23.38
2022-12-01T23:44:09.008Z,21.90
2022-12-01T23:46:36.669Z,22.67
2022-12-01T23:49:09.344Z,24.30
2022-12-01T23:51:44.197Z,23.25
2022-12-01T23:54:18.048Z,24.85
2022-12-01T23:56:50.432Z,24.87
2022-12-01T23:59:18.187Z,23.50
